sensor_id;sensor_type;location;lat;lon;timestamp;pressure;altitude;pressure_sealevel;temperature;humidity
38852;BME280;24605;50.092;9.182;2023-06-26T00:00:59;97859.41;;;21.20;59.16
38852;BME280;24605;50.092;9.182;2023-06-26T00:03:26;97855.78;;;21.26;58.74
38852;BME280;24605;50.092;9.182;2023-06-26T00:05:54;97856.66;;;21.15;60.03
38852;BME280;24605;50.092;9.182;2023-06-26T00:08:26;97853.94;;;20.98;61.19
38852;BME280;24605;50.092;9.182;2023-06-26T00:10:53;97847.81;;;20.97;61.21
38852;BME280;24605;50.092;9.182;2023-06-26T00:13:20;97845.00;;;20.75;61.49
38852;BME280;24605;50.092;9.182;2023-06-26T00:15:46;97845.28;;;20.62;62.11
38852;BME280;24605;50.092;9.182;2023-06-26T00:18:13;97846.38;;;20.78;61.61
38852;BME280;24605;50.092;9.182;2023-06-26T00:20:39;97851.13;;;20.88;60.59
38852;BME280;24605;50.092;9.182;2023-06-26T00:23:06;97847.25;;;20.95;60.20
38852;BME280;24605;50.092;9.182;2023-06-26T00:25:32;97845.41;;;20.96;60.19
38852;BME280;24605;50.092;9.182;2023-06-26T00:28:00;97844.56;;;20.95;60.42
38852;BME280;24605;50.092;9.182;2023-06-26T00:30:27;97842.81;;;21.01;59.90
38852;BME280;24605;50.092;9.182;2023-06-26T00:32:53;97830.22;;;20.96;59.93
38852;BME280;24605;50.092;9.182;2023-06-26T00:35:19;97843.47;;;21.08;59.92
38852;BME280;24605;50.092;9.182;2023-06-26T00:37:46;97837.88;;;20.93;60.21
38852;BME280;24605;50.092;9.182;2023-06-26T00:40:12;97841.00;;;20.90;61.02
38852;BME280;24605;50.092;9.182;2023-06-26T00:42:39;97839.94;;;20.74;61.54
38852;BME280;24605;50.092;9.182;2023-06-26T00:45:07;97844.31;;;20.68;62.25
38852;BME280;24605;50.092;9.182;2023-06-26T00:47:34;97840.41;;;20.59;62.76
38852;BME280;24605;50.092;9.182;2023-06-26T00:50:01;97841.84;;;20.38;63.78
38852;BME280;24605;50.092;9.182;2023-06-26T00:52:28;97838.84;;;20.34;64.07
38852;BME280;24605;50.092;9.182;2023-06-26T00:54:55;97841.28;;;20.35;64.13
38852;BME280;24605;50.092;9.182;2023-06-26T00:57:22;97831.22;;;20.38;64.52
38852;BME280;24605;50.092;9.182;2023-06-26T00:59:49;97834.56;;;20.33;64.55
38852;BME280;24605;50.092;9.182;2023-06-26T01:02:17;97830.34;;;20.08;65.72
38852;BME280;24605;50.092;9.182;2023-06-26T01:04:45;97833.34;;;20.00;66.25
38852;BME280;24605;50.092;9.182;2023-06-26T01:07:13;97827.44;;;20.10;65.98
38852;BME280;24605;50.092;9.182;2023-06-26T01:09:40;97825.81;;;20.09;65.87
38852;BME280;24605;50.092;9.182;2023-06-26T01:12:07;97797.34;;;19.97;65.49
38852;BME280;24605;50.092;9.182;2023-06-26T01:14:34;97823.72;;;20.23;64.36
38852;BME280;24605;50.092;9.182;2023-06-26T01:17:02;97810.94;;;20.37;63.31
38852;BME280;24605;50.092;9.182;2023-06-26T01:19:31;97823.97;;;20.50;63.08
38852;BME280;24605;50.092;9.182;2023-06-26T01:22:02;97826.13;;;20.36;63.21
38852;BME280;24605;50.092;9.182;2023-06-26T01:24:42;97820.81;;;20.36;63.79
38852;BME280;24605;50.092;9.182;2023-06-26T01:27:12;97817.94;;;20.26;64.70
38852;BME280;24605;50.092;9.182;2023-06-26T01:29:40;97808.53;;;20.23;65.00
38852;BME280;24605;50.092;9.182;2023-06-26T01:32:08;97799.50;;;20.36;63.79
38852;BME280;24605;50.092;9.182;2023-06-26T01:34:34;97797.38;;;20.38;63.63
38852;BME280;24605;50.092;9.182;2023-06-26T01:37:01;97780.91;;;20.12;64.23
38852;BME280;24605;50.092;9.182;2023-06-26T01:39:28;97794.72;;;20.38;63.55
38852;BME280;24605;50.092;9.182;2023-06-26T01:41:54;97798.75;;;20.41;63.60
38852;BME280;24605;50.092;9.182;2023-06-26T01:44:27;97794.41;;;20.63;62.72
38852;BME280;24605;50.092;9.182;2023-06-26T01:47:00;97792.13;;;20.55;63.17
38852;BME280;24605;50.092;9.182;2023-06-26T01:49:38;97802.50;;;20.40;63.95
38852;BME280;24605;50.092;9.182;2023-06-26T01:52:13;97788.69;;;20.43;64.13
38852;BME280;24605;50.092;9.182;2023-06-26T01:54:47;97792.56;;;20.35;64.33
38852;BME280;24605;50.092;9.182;2023-06-26T01:57:16;97791.63;;;20.29;64.69
38852;BME280;24605;50.092;9.182;2023-06-26T01:59:46;97782.69;;;20.35;64.60
38852;BME280;24605;50.092;9.182;2023-06-26T02:02:13;97787.69;;;20.32;65.02
38852;BME280;24605;50.092;9.182;2023-06-26T02:04:40;97787.34;;;20.28;65.35
38852;BME280;24605;50.092;9.182;2023-06-26T02:07:07;97782.81;;;20.29;65.27
38852;BME280;24605;50.092;9.182;2023-06-26T02:09:34;97784.13;;;20.26;65.25
38852;BME280;24605;50.092;9.182;2023-06-26T02:12:01;97795.63;;;20.03;66.56
38852;BME280;24605;50.092;9.182;2023-06-26T02:14:27;97797.88;;;20.23;65.73
38852;BME280;24605;50.092;9.182;2023-06-26T02:16:55;97797.94;;;19.87;67.65
38852;BME280;24605;50.092;9.182;2023-06-26T02:19:22;97796.19;;;19.57;68.72
38852;BME280;24605;50.092;9.182;2023-06-26T02:21:48;97790.53;;;19.42;69.53
38852;BME280;24605;50.092;9.182;2023-06-26T02:24:16;97789.13;;;19.39;69.82
38852;BME280;24605;50.092;9.182;2023-06-26T02:26:42;97785.31;;;19.35;69.87
38852;BME280;24605;50.092;9.182;2023-06-26T02:29:08;97786.13;;;19.36;70.46
38852;BME280;24605;50.092;9.182;2023-06-26T02:31:35;97784.66;;;19.52;68.96
38852;BME280;24605;50.092;9.182;2023-06-26T02:34:03;97777.69;;;19.63;68.29
38852;BME280;24605;50.092;9.182;2023-06-26T02:36:29;97775.72;;;19.70;67.65
38852;BME280;24605;50.092;9.182;2023-06-26T02:38:56;97769.00;;;19.79;66.91
38852;BME280;24605;50.092;9.182;2023-06-26T02:41:22;97776.66;;;19.76;66.93
38852;BME280;24605;50.092;9.182;2023-06-26T02:43:49;97781.03;;;19.82;67.12
38852;BME280;24605;50.092;9.182;2023-06-26T02:46:15;97778.16;;;19.83;67.54
38852;BME280;24605;50.092;9.182;2023-06-26T02:48:41;97783.81;;;19.63;68.86
38852;BME280;24605;50.092;9.182;2023-06-26T02:51:09;97760.47;;;19.41;69.85
38852;BME280;24605;50.092;9.182;2023-06-26T02:53:36;97775.06;;;19.39;70.05
38852;BME280;24605;50.092;9.182;2023-06-26T02:56:02;97775.59;;;19.29;70.48
38852;BME280;24605;50.092;9.182;2023-06-26T02:58:29;97778.59;;;19.21;70.70
38852;BME280;24605;50.092;9.182;2023-06-26T03:00:55;97778.13;;;19.12;71.57
38852;BME280;24605;50.092;9.182;2023-06-26T03:03:22;97772.00;;;19.12;72.02
38852;BME280;24605;50.092;9.182;2023-06-26T03:05:48;97774.31;;;19.08;72.19
38852;BME280;24605;50.092;9.182;2023-06-26T03:08:16;97774.19;;;19.15;71.52
38852;BME280;24605;50.092;9.182;2023-06-26T03:10:42;97776.03;;;19.14;71.91
38852;BME280;24605;50.092;9.182;2023-06-26T03:13:09;97778.34;;;19.22;72.00
38852;BME280;24605;50.092;9.182;2023-06-26T03:15:35;97764.13;;;19.05;72.71
38852;BME280;24605;50.092;9.182;2023-06-26T03:18:02;97778.69;;;19.02;73.40
38852;BME280;24605;50.092;9.182;2023-06-26T03:20:28;97779.16;;;18.99;73.41
38852;BME280;24605;50.092;9.182;2023-06-26T03:22:55;97768.72;;;18.98;73.08
38852;BME280;24605;50.092;9.182;2023-06-26T03:25:23;97769.75;;;18.97;72.83
38852;BME280;24605;50.092;9.182;2023-06-26T03:27:49;97772.56;;;19.02;72.88
38852;BME280;24605;50.092;9.182;2023-06-26T03:30:16;97748.50;;;18.97;72.83
38852;BME280;24605;50.092;9.182;2023-06-26T03:32:42;97774.66;;;19.12;72.94
38852;BME280;24605;50.092;9.182;2023-06-26T03:35:08;97766.44;;;19.13;73.25
38852;BME280;24605;50.092;9.182;2023-06-26T03:37:35;97765.28;;;19.09;73.45
38852;BME280;24605;50.092;9.182;2023-06-26T03:40:02;97760.44;;;19.06;74.01
38852;BME280;24605;50.092;9.182;2023-06-26T03:42:31;97771.53;;;19.03;74.46
38852;BME280;24605;50.092;9.182;2023-06-26T03:44:57;97770.34;;;18.99;74.34
38852;BME280;24605;50.092;9.182;2023-06-26T03:47:24;97776.50;;;18.99;74.60
38852;BME280;24605;50.092;9.182;2023-06-26T03:49:50;97764.59;;;19.02;74.31
38852;BME280;24605;50.092;9.182;2023-06-26T03:52:16;97736.34;;;18.89;73.88
38852;BME280;24605;50.092;9.182;2023-06-26T03:54:43;97771.75;;;19.13;73.70
38852;BME280;24605;50.092;9.182;2023-06-26T03:57:09;97769.25;;;19.18;73.72
38852;BME280;24605;50.092;9.182;2023-06-26T03:59:37;97769.81;;;19.20;73.56
38852;BME280;24605;50.092;9.182;2023-06-26T04:02:04;97762.66;;;19.21;73.30
38852;BME280;24605;50.092;9.182;2023-06-26T04:04:30;97767.75;;;19.34;72.80
38852;BME280;24605;50.092;9.182;2023-06-26T04:06:57;97761.63;;;19.34;73.40
38852;BME280;24605;50.092;9.182;2023-06-26T04:09:24;97767.19;;;19.44;73.08
38852;BME280;24605;50.092;9.182;2023-06-26T04:11:51;97767.06;;;19.51;72.95
38852;BME280;24605;50.092;9.182;2023-06-26T04:14:17;97769.50;;;19.52;73.27
38852;BME280;24605;50.092;9.182;2023-06-26T04:16:45;97769.72;;;19.51;73.07
38852;BME280;24605;50.092;9.182;2023-06-26T04:19:12;97770.88;;;19.67;72.39
38852;BME280;24605;50.092;9.182;2023-06-26T04:21:38;97767.66;;;19.65;72.54
38852;BME280;24605;50.092;9.182;2023-06-26T04:24:05;97772.97;;;19.65;73.04
38852;BME280;24605;50.092;9.182;2023-06-26T04:26:32;97773.41;;;19.73;72.32
38852;BME280;24605;50.092;9.182;2023-06-26T04:28:58;97777.47;;;19.88;71.64
38852;BME280;24605;50.092;9.182;2023-06-26T04:31:25;97783.16;;;19.92;72.48
38852;BME280;24605;50.092;9.182;2023-06-26T04:33:53;97773.78;;;19.89;71.95
38852;BME280;24605;50.092;9.182;2023-06-26T04:36:20;97772.84;;;19.95;72.30
38852;BME280;24605;50.092;9.182;2023-06-26T04:38:47;97775.50;;;20.07;72.29
38852;BME280;24605;50.092;9.182;2023-06-26T04:41:14;97772.34;;;20.10;72.66
38852;BME280;24605;50.092;9.182;2023-06-26T04:43:40;97772.22;;;20.17;72.31
38852;BME280;24605;50.092;9.182;2023-06-26T04:46:07;97777.31;;;20.18;72.61
38852;BME280;24605;50.092;9.182;2023-06-26T04:48:33;97774.47;;;20.37;71.61
38852;BME280;24605;50.092;9.182;2023-06-26T04:51:01;97780.81;;;20.77;69.83
38852;BME280;24605;50.092;9.182;2023-06-26T04:53:27;97786.13;;;20.89;69.26
38852;BME280;24605;50.092;9.182;2023-06-26T04:55:54;97784.00;;;20.91;69.72
38852;BME280;24605;50.092;9.182;2023-06-26T04:58:21;97792.09;;;21.13;68.51
38852;BME280;24605;50.092;9.182;2023-06-26T05:00:47;97791.94;;;21.20;68.83
38852;BME280;24605;50.092;9.182;2023-06-26T05:03:17;97796.63;;;21.29;67.62
38852;BME280;24605;50.092;9.182;2023-06-26T05:05:44;97794.16;;;21.23;69.10
38852;BME280;24605;50.092;9.182;2023-06-26T05:08:16;97793.41;;;21.10;70.69
38852;BME280;24605;50.092;9.182;2023-06-26T05:10:42;97791.31;;;21.12;71.40
38852;BME280;24605;50.092;9.182;2023-06-26T05:13:09;97739.59;;;20.79;71.80
38852;BME280;24605;50.092;9.182;2023-06-26T05:15:35;97787.31;;;20.98;73.44
38852;BME280;24605;50.092;9.182;2023-06-26T05:18:02;97789.34;;;21.25;71.58
38852;BME280;24605;50.092;9.182;2023-06-26T05:20:29;97749.34;;;21.42;68.31
38852;BME280;24605;50.092;9.182;2023-06-26T05:22:56;97790.91;;;21.72;66.71
38852;BME280;24605;50.092;9.182;2023-06-26T05:25:24;97783.31;;;22.03;65.02
38852;BME280;24605;50.092;9.182;2023-06-26T05:27:52;97777.84;;;22.15;63.49
38852;BME280;24605;50.092;9.182;2023-06-26T05:30:20;97770.97;;;22.19;62.06
38852;BME280;24605;50.092;9.182;2023-06-26T05:32:46;97774.84;;;22.33;61.45
38852;BME280;24605;50.092;9.182;2023-06-26T05:35:14;97781.88;;;22.40;61.43
38852;BME280;24605;50.092;9.182;2023-06-26T05:37:42;97777.97;;;22.47;61.25
38852;BME280;24605;50.092;9.182;2023-06-26T05:40:09;97778.75;;;22.70;60.94
38852;BME280;24605;50.092;9.182;2023-06-26T05:42:38;97781.63;;;22.91;60.66
38852;BME280;24605;50.092;9.182;2023-06-26T05:45:05;97782.22;;;22.98;60.59
38852;BME280;24605;50.092;9.182;2023-06-26T05:47:31;97781.81;;;23.11;60.24
38852;BME280;24605;50.092;9.182;2023-06-26T05:49:59;97781.16;;;23.26;58.43
38852;BME280;24605;50.092;9.182;2023-06-26T05:52:26;97788.72;;;23.35;56.09
38852;BME280;24605;50.092;9.182;2023-06-26T05:54:52;97786.53;;;23.31;55.92
38852;BME280;24605;50.092;9.182;2023-06-26T05:57:20;97789.69;;;23.23;56.05
38852;BME280;24605;50.092;9.182;2023-06-26T05:59:48;97787.19;;;23.44;55.99
38852;BME280;24605;50.092;9.182;2023-06-26T06:02:15;97795.50;;;23.47;55.71
38852;BME280;24605;50.092;9.182;2023-06-26T06:04:41;97794.09;;;23.40;55.63
38852;BME280;24605;50.092;9.182;2023-06-26T06:07:08;97795.16;;;23.39;56.02
38852;BME280;24605;50.092;9.182;2023-06-26T06:09:34;97793.69;;;23.58;56.44
38852;BME280;24605;50.092;9.182;2023-06-26T06:12:01;97786.63;;;23.42;55.59
38852;BME280;24605;50.092;9.182;2023-06-26T06:14:28;97789.88;;;23.49;55.30
38852;BME280;24605;50.092;9.182;2023-06-26T06:16:56;97790.47;;;23.56;54.85
38852;BME280;24605;50.092;9.182;2023-06-26T06:19:23;97787.78;;;23.56;54.61
38852;BME280;24605;50.092;9.182;2023-06-26T06:21:49;97786.16;;;23.55;54.36
38852;BME280;24605;50.092;9.182;2023-06-26T06:24:16;97793.72;;;23.63;54.61
38852;BME280;24605;50.092;9.182;2023-06-26T06:26:42;97790.91;;;23.86;54.01
38852;BME280;24605;50.092;9.182;2023-06-26T06:29:09;97759.97;;;23.57;53.52
38852;BME280;24605;50.092;9.182;2023-06-26T06:31:35;97790.38;;;23.84;53.93
38852;BME280;24605;50.092;9.182;2023-06-26T06:34:03;97795.34;;;24.07;53.48
38852;BME280;24605;50.092;9.182;2023-06-26T06:36:30;97793.66;;;23.96;53.55
38852;BME280;24605;50.092;9.182;2023-06-26T06:38:56;97797.72;;;24.04;53.03
38852;BME280;24605;50.092;9.182;2023-06-26T06:41:23;97788.75;;;24.36;52.12
38852;BME280;24605;50.092;9.182;2023-06-26T06:43:49;97785.78;;;24.37;51.81
38852;BME280;24605;50.092;9.182;2023-06-26T06:46:16;97790.41;;;24.47;51.58
38852;BME280;24605;50.092;9.182;2023-06-26T06:48:42;97778.06;;;24.41;51.45
38852;BME280;24605;50.092;9.182;2023-06-26T06:51:10;97788.25;;;24.60;50.79
38852;BME280;24605;50.092;9.182;2023-06-26T06:53:36;97786.72;;;24.79;51.20
38852;BME280;24605;50.092;9.182;2023-06-26T06:56:03;97771.38;;;24.59;51.67
38852;BME280;24605;50.092;9.182;2023-06-26T06:58:30;97788.06;;;24.82;51.38
38852;BME280;24605;50.092;9.182;2023-06-26T07:00:59;97787.81;;;24.83;51.28
38852;BME280;24605;50.092;9.182;2023-06-26T07:03:27;97779.22;;;24.71;51.63
38852;BME280;24605;50.092;9.182;2023-06-26T07:05:55;97748.34;;;24.53;51.19
38852;BME280;24605;50.092;9.182;2023-06-26T07:08:23;97776.47;;;24.61;52.23
38852;BME280;24605;50.092;9.182;2023-06-26T07:10:49;97766.63;;;24.92;51.09
38852;BME280;24605;50.092;9.182;2023-06-26T07:13:16;97776.31;;;24.98;50.40
38852;BME280;24605;50.092;9.182;2023-06-26T07:15:42;97765.31;;;25.05;50.00
38852;BME280;24605;50.092;9.182;2023-06-26T07:18:09;97770.16;;;25.18;50.89
38852;BME280;24605;50.092;9.182;2023-06-26T07:20:35;97774.16;;;25.31;49.68
38852;BME280;24605;50.092;9.182;2023-06-26T07:23:02;97782.19;;;25.52;48.43
38852;BME280;24605;50.092;9.182;2023-06-26T07:25:29;97785.44;;;25.44;48.83
38852;BME280;24605;50.092;9.182;2023-06-26T07:27:56;97792.13;;;25.62;49.76
38852;BME280;24605;50.092;9.182;2023-06-26T07:30:23;97786.78;;;25.41;48.82
38852;BME280;24605;50.092;9.182;2023-06-26T07:32:50;97780.84;;;25.13;49.09
38852;BME280;24605;50.092;9.182;2023-06-26T07:35:17;97788.41;;;25.11;49.88
38852;BME280;24605;50.092;9.182;2023-06-26T07:37:43;97785.44;;;25.23;50.00
38852;BME280;24605;50.092;9.182;2023-06-26T07:40:10;97787.31;;;25.48;49.26
38852;BME280;24605;50.092;9.182;2023-06-26T07:42:38;97786.78;;;25.62;49.52
38852;BME280;24605;50.092;9.182;2023-06-26T07:45:06;97781.66;;;25.65;49.08
38852;BME280;24605;50.092;9.182;2023-06-26T07:47:36;97781.56;;;25.96;48.27
38852;BME280;24605;50.092;9.182;2023-06-26T07:50:03;97780.50;;;26.13;47.76
38852;BME280;24605;50.092;9.182;2023-06-26T07:52:29;97775.88;;;26.24;47.77
38852;BME280;24605;50.092;9.182;2023-06-26T07:54:56;97781.81;;;26.10;48.28
38852;BME280;24605;50.092;9.182;2023-06-26T07:57:22;97775.38;;;26.06;48.08
38852;BME280;24605;50.092;9.182;2023-06-26T07:59:50;97772.69;;;26.06;48.07
38852;BME280;24605;50.092;9.182;2023-06-26T08:02:17;97766.22;;;26.18;47.88
38852;BME280;24605;50.092;9.182;2023-06-26T08:04:43;97777.22;;;26.21;47.96
38852;BME280;24605;50.092;9.182;2023-06-26T08:07:10;97787.13;;;26.31;47.62
38852;BME280;24605;50.092;9.182;2023-06-26T08:09:36;97780.66;;;26.32;48.26
38852;BME280;24605;50.092;9.182;2023-06-26T08:12:03;97779.16;;;26.66;46.85
38852;BME280;24605;50.092;9.182;2023-06-26T08:14:30;97787.53;;;26.59;43.91
38852;BME280;24605;50.092;9.182;2023-06-26T08:16:58;97775.69;;;26.60;45.98
38852;BME280;24605;50.092;9.182;2023-06-26T08:19:25;97774.97;;;26.89;45.13
38852;BME280;24605;50.092;9.182;2023-06-26T08:21:52;97775.75;;;26.95;43.62
38852;BME280;24605;50.092;9.182;2023-06-26T08:24:18;97775.75;;;26.95;44.60
38852;BME280;24605;50.092;9.182;2023-06-26T08:26:45;97799.00;;;26.70;43.41
38852;BME280;24605;50.092;9.182;2023-06-26T08:29:12;97795.25;;;26.71;43.69
38852;BME280;24605;50.092;9.182;2023-06-26T08:31:40;97790.22;;;26.54;42.33
38852;BME280;24605;50.092;9.182;2023-06-26T08:34:08;97802.94;;;26.38;41.92
38852;BME280;24605;50.092;9.182;2023-06-26T08:36:34;97797.16;;;26.10;42.93
38852;BME280;24605;50.092;9.182;2023-06-26T08:39:01;97799.00;;;26.04;43.35
38852;BME280;24605;50.092;9.182;2023-06-26T08:41:30;97789.09;;;26.10;43.54
38852;BME280;24605;50.092;9.182;2023-06-26T08:43:56;97784.25;;;26.12;43.76
38852;BME280;24605;50.092;9.182;2023-06-26T08:46:23;97779.63;;;26.23;43.65
38852;BME280;24605;50.092;9.182;2023-06-26T08:48:54;97790.31;;;26.38;43.76
38852;BME280;24605;50.092;9.182;2023-06-26T08:51:24;97787.91;;;26.37;43.21
38852;BME280;24605;50.092;9.182;2023-06-26T08:53:56;97795.97;;;26.37;43.98
38852;BME280;24605;50.092;9.182;2023-06-26T08:56:25;97789.72;;;26.47;43.55
38852;BME280;24605;50.092;9.182;2023-06-26T08:58:54;97719.72;;;26.22;42.90
38852;BME280;24605;50.092;9.182;2023-06-26T09:01:21;97780.16;;;26.75;43.70
38852;BME280;24605;50.092;9.182;2023-06-26T09:03:49;97781.16;;;26.89;42.43
38852;BME280;24605;50.092;9.182;2023-06-26T09:06:16;97789.97;;;27.00;43.05
38852;BME280;24605;50.092;9.182;2023-06-26T09:08:45;97788.84;;;27.06;42.41
38852;BME280;24605;50.092;9.182;2023-06-26T09:11:11;97792.31;;;27.42;42.68
38852;BME280;24605;50.092;9.182;2023-06-26T09:13:38;97795.69;;;27.58;41.48
38852;BME280;24605;50.092;9.182;2023-06-26T09:16:06;97796.06;;;27.75;42.27
38852;BME280;24605;50.092;9.182;2023-06-26T09:18:33;97792.88;;;27.97;41.39
38852;BME280;24605;50.092;9.182;2023-06-26T09:21:03;97753.78;;;27.76;40.86
38852;BME280;24605;50.092;9.182;2023-06-26T09:23:32;97796.88;;;27.76;41.02
38852;BME280;24605;50.092;9.182;2023-06-26T09:26:02;97799.59;;;28.24;40.79
38852;BME280;24605;50.092;9.182;2023-06-26T09:28:29;97804.50;;;28.41;40.03
38852;BME280;24605;50.092;9.182;2023-06-26T09:31:00;97804.41;;;28.27;41.17
38852;BME280;24605;50.092;9.182;2023-06-26T09:33:27;97798.53;;;27.72;41.43
38852;BME280;24605;50.092;9.182;2023-06-26T09:35:54;97793.09;;;27.77;42.24
38852;BME280;24605;50.092;9.182;2023-06-26T09:38:20;97805.25;;;27.98;41.20
38852;BME280;24605;50.092;9.182;2023-06-26T09:40:47;97795.94;;;28.15;41.34
38852;BME280;24605;50.092;9.182;2023-06-26T09:43:15;97805.31;;;27.93;41.54
38852;BME280;24605;50.092;9.182;2023-06-26T09:45:41;97800.56;;;27.56;43.00
38852;BME280;24605;50.092;9.182;2023-06-26T09:48:08;97790.84;;;27.60;42.63
38852;BME280;24605;50.092;9.182;2023-06-26T09:50:35;97803.13;;;27.71;41.58
38852;BME280;24605;50.092;9.182;2023-06-26T09:53:07;97779.38;;;27.73;42.35
38852;BME280;24605;50.092;9.182;2023-06-26T09:55:34;97798.34;;;27.87;41.64
38852;BME280;24605;50.092;9.182;2023-06-26T09:58:02;97800.06;;;27.78;40.68
38852;BME280;24605;50.092;9.182;2023-06-26T10:00:31;97789.53;;;28.06;41.03
38852;BME280;24605;50.092;9.182;2023-06-26T10:02:57;97786.22;;;27.90;40.97
38852;BME280;24605;50.092;9.182;2023-06-26T10:05:24;97795.50;;;27.78;41.45
38852;BME280;24605;50.092;9.182;2023-06-26T10:07:52;97795.81;;;27.77;40.97
38852;BME280;24605;50.092;9.182;2023-06-26T10:10:19;97782.03;;;27.78;40.58
38852;BME280;24605;50.092;9.182;2023-06-26T10:12:48;97794.81;;;27.92;41.15
38852;BME280;24605;50.092;9.182;2023-06-26T10:15:15;97730.50;;;27.61;41.02
38852;BME280;24605;50.092;9.182;2023-06-26T10:17:46;97796.72;;;27.91;41.10
38852;BME280;24605;50.092;9.182;2023-06-26T10:20:14;97806.00;;;27.80;40.13
38852;BME280;24605;50.092;9.182;2023-06-26T10:22:44;97798.03;;;27.94;41.07
38852;BME280;24605;50.092;9.182;2023-06-26T10:25:12;97794.38;;;28.09;40.35
38852;BME280;24605;50.092;9.182;2023-06-26T10:27:44;97770.50;;;27.97;41.23
38852;BME280;24605;50.092;9.182;2023-06-26T10:30:14;97774.28;;;27.96;40.72
38852;BME280;24605;50.092;9.182;2023-06-26T10:32:45;97791.88;;;28.80;40.26
38852;BME280;24605;50.092;9.182;2023-06-26T10:35:12;97802.56;;;29.04;39.45
38852;BME280;24605;50.092;9.182;2023-06-26T10:37:42;97800.50;;;29.34;38.55
38852;BME280;24605;50.092;9.182;2023-06-26T10:40:09;97795.31;;;28.86;39.11
38852;BME280;24605;50.092;9.182;2023-06-26T10:42:36;97794.56;;;28.80;38.92
38852;BME280;24605;50.092;9.182;2023-06-26T10:45:10;97801.66;;;28.33;39.93
38852;BME280;24605;50.092;9.182;2023-06-26T10:47:39;97797.16;;;28.47;40.47
38852;BME280;24605;50.092;9.182;2023-06-26T10:50:23;97798.78;;;28.67;39.26
38852;BME280;24605;50.092;9.182;2023-06-26T10:53:12;97796.13;;;28.43;40.44
38852;BME280;24605;50.092;9.182;2023-06-26T10:55:44;97793.72;;;28.41;41.04
38852;BME280;24605;50.092;9.182;2023-06-26T10:58:29;97804.94;;;28.73;40.36
38852;BME280;24605;50.092;9.182;2023-06-26T11:01:17;97787.69;;;28.88;41.12
38852;BME280;24605;50.092;9.182;2023-06-26T11:03:45;97799.75;;;29.48;40.04
38852;BME280;24605;50.092;9.182;2023-06-26T11:06:14;97795.41;;;29.33;39.56
38852;BME280;24605;50.092;9.182;2023-06-26T11:08:45;97780.59;;;29.11;40.02
38852;BME280;24605;50.092;9.182;2023-06-26T11:11:12;97806.66;;;29.02;40.22
38852;BME280;24605;50.092;9.182;2023-06-26T11:13:39;97800.47;;;29.01;40.06
38852;BME280;24605;50.092;9.182;2023-06-26T11:16:06;97784.94;;;28.74;40.49
38852;BME280;24605;50.092;9.182;2023-06-26T11:18:33;97788.13;;;28.76;40.92
38852;BME280;24605;50.092;9.182;2023-06-26T11:21:07;97798.69;;;28.91;40.68
38852;BME280;24605;50.092;9.182;2023-06-26T11:23:36;97792.94;;;28.98;41.01
38852;BME280;24605;50.092;9.182;2023-06-26T11:26:15;97801.91;;;28.93;41.49
38852;BME280;24605;50.092;9.182;2023-06-26T11:28:47;97814.81;;;29.35;40.57
38852;BME280;24605;50.092;9.182;2023-06-26T11:31:27;97810.78;;;29.13;40.35
38852;BME280;24605;50.092;9.182;2023-06-26T11:33:55;97806.22;;;29.28;40.60
38852;BME280;24605;50.092;9.182;2023-06-26T11:36:24;97810.34;;;29.25;40.57
38852;BME280;24605;50.092;9.182;2023-06-26T11:38:56;97810.16;;;28.83;41.94
38852;BME280;24605;50.092;9.182;2023-06-26T11:41:25;97796.38;;;29.04;42.38
38852;BME280;24605;50.092;9.182;2023-06-26T11:43:52;97808.91;;;28.95;41.35
38852;BME280;24605;50.092;9.182;2023-06-26T11:46:20;97822.69;;;28.74;42.95
38852;BME280;24605;50.092;9.182;2023-06-26T11:48:47;97820.91;;;28.88;42.14
38852;BME280;24605;50.092;9.182;2023-06-26T11:51:14;97813.97;;;28.82;42.42
38852;BME280;24605;50.092;9.182;2023-06-26T11:53:41;97817.47;;;28.83;41.97
38852;BME280;24605;50.092;9.182;2023-06-26T11:56:11;97812.72;;;28.93;42.24
38852;BME280;24605;50.092;9.182;2023-06-26T11:58:56;97833.50;;;28.93;41.99
38852;BME280;24605;50.092;9.182;2023-06-26T12:01:23;97825.97;;;28.27;43.66
38852;BME280;24605;50.092;9.182;2023-06-26T12:03:50;97823.53;;;28.50;43.04
38852;BME280;24605;50.092;9.182;2023-06-26T12:06:17;97827.13;;;28.21;44.15
38852;BME280;24605;50.092;9.182;2023-06-26T12:08:44;97820.03;;;28.50;43.20
38852;BME280;24605;50.092;9.182;2023-06-26T12:11:12;97824.91;;;28.91;42.70
38852;BME280;24605;50.092;9.182;2023-06-26T12:13:39;97816.34;;;29.22;42.44
38852;BME280;24605;50.092;9.182;2023-06-26T12:16:06;97837.63;;;29.23;41.19
38852;BME280;24605;50.092;9.182;2023-06-26T12:18:34;97840.59;;;29.08;42.37
38852;BME280;24605;50.092;9.182;2023-06-26T12:21:00;97832.59;;;28.59;44.01
38852;BME280;24605;50.092;9.182;2023-06-26T12:23:32;97855.25;;;28.58;44.40
38852;BME280;24605;50.092;9.182;2023-06-26T12:25:58;97850.19;;;28.76;43.88
38852;BME280;24605;50.092;9.182;2023-06-26T12:28:26;97847.16;;;28.15;44.27
38852;BME280;24605;50.092;9.182;2023-06-26T12:31:14;97835.03;;;28.80;42.49
38852;BME280;24605;50.092;9.182;2023-06-26T12:33:42;97839.59;;;29.37;40.65
38852;BME280;24605;50.092;9.182;2023-06-26T12:36:10;97845.28;;;29.68;38.38
38852;BME280;24605;50.092;9.182;2023-06-26T12:38:37;97838.06;;;29.97;38.45
38852;BME280;24605;50.092;9.182;2023-06-26T12:41:03;97836.66;;;29.99;38.52
38852;BME280;24605;50.092;9.182;2023-06-26T12:43:32;97838.19;;;29.59;38.87
38852;BME280;24605;50.092;9.182;2023-06-26T12:45:58;97827.78;;;29.66;38.56
38852;BME280;24605;50.092;9.182;2023-06-26T12:48:36;97830.63;;;29.42;40.99
38852;BME280;24605;50.092;9.182;2023-06-26T12:51:08;97833.53;;;29.26;41.88
38852;BME280;24605;50.092;9.182;2023-06-26T12:53:34;97833.56;;;29.07;42.70
38852;BME280;24605;50.092;9.182;2023-06-26T12:56:01;97840.25;;;28.28;42.28
38852;BME280;24605;50.092;9.182;2023-06-26T12:58:28;97836.66;;;28.81;40.40
38852;BME280;24605;50.092;9.182;2023-06-26T13:00:55;97838.41;;;28.48;42.79
38852;BME280;24605;50.092;9.182;2023-06-26T13:03:23;97838.59;;;28.08;43.30